sensor_id;sensor_type;location;lat;lon;timestamp;temperature;humidity
2825;DHT22;1420;51.324;12.344;2022-09-09T00:00:20;15.50;1.00
2825;DHT22;1420;51.324;12.344;2022-09-09T00:02:54;15.30;1.00
2825;DHT22;1420;51.324;12.344;2022-09-09T00:05:29;15.20;1.00
2825;DHT22;1420;51.324;12.344;2022-09-09T00:07:58;15.20;1.00
2825;DHT22;1420;51.324;12.344;2022-09-09T00:10:28;15.20;1.00
2825;DHT22;1420;51.324;12.344;2022-09-09T00:19:00;15.20;1.00
2825;DHT22;1420;51.324;12.344;2022-09-09T00:21:30;15.20;1.00
2825;DHT22;1420;51.324;12.344;2022-09-09T00:23:55;15.40;1.00
2825;DHT22;1420;51.324;12.344;2022-09-09T00:26:40;15.40;1.00
2825;DHT22;1420;51.324;12.344;2022-09-09T00:29:16;15.30;1.00
2825;DHT22;1420;51.324;12.344;2022-09-09T00:31:44;15.30;1.00
2825;DHT22;1420;51.324;12.344;2022-09-09T00:34:13;15.30;1.00
2825;DHT22;1420;51.324;12.344;2022-09-09T00:36:40;15.10;1.00
2825;DHT22;1420;51.324;12.344;2022-09-09T00:39:09;15.10;1.00
2825;DHT22;1420;51.324;12.344;2022-09-09T00:41:47;15.00;1.00
2825;DHT22;1420;51.324;12.344;2022-09-09T00:44:20;15.00;1.00
2825;DHT22;1420;51.324;12.344;2022-09-09T00:46:50;15.00;1.00
2825;DHT22;1420;51.324;12.344;2022-09-09T00:49:20;15.00;1.00
2825;DHT22;1420;51.324;12.344;2022-09-09T00:51:48;15.00;1.00
2825;DHT22;1420;51.324;12.344;2022-09-09T00:54:23;15.00;1.00
2825;DHT22;1420;51.324;12.344;2022-09-09T00:56:53;14.90;1.00
2825;DHT22;1420;51.324;12.344;2022-09-09T00:59:56;14.80;1.00
2825;DHT22;1420;51.324;12.344;2022-09-09T01:02:08;14.90;1.00
2825;DHT22;1420;51.324;12.344;2022-09-09T01:04:32;14.90;1.00
2825;DHT22;1420;51.324;12.344;2022-09-09T01:07:00;14.80;1.00
2825;DHT22;1420;51.324;12.344;2022-09-09T01:09:29;14.70;1.00
2825;DHT22;1420;51.324;12.344;2022-09-09T01:14:42;14.80;1.00
2825;DHT22;1420;51.324;12.344;2022-09-09T01:22:37;14.60;1.00
2825;DHT22;1420;51.324;12.344;2022-09-09T01:25:13;14.70;1.00
2825;DHT22;1420;51.324;12.344;2022-09-09T01:27:37;14.60;1.00
2825;DHT22;1420;51.324;12.344;2022-09-09T01:30:09;14.70;1.00
2825;DHT22;1420;51.324;12.344;2022-09-09T01:32:43;14.60;1.00
2825;DHT22;1420;51.324;12.344;2022-09-09T01:35:15;14.70;1.00
2825;DHT22;1420;51.324;12.344;2022-09-09T01:37:40;14.60;1.00
2825;DHT22;1420;51.324;12.344;2022-09-09T01:40:07;14.60;1.00
2825;DHT22;1420;51.324;12.344;2022-09-09T01:42:34;14.70;1.00
2825;DHT22;1420;51.324;12.344;2022-09-09T01:45:02;14.70;1.00
2825;DHT22;1420;51.324;12.344;2022-09-09T01:47:29;14.70;1.00
2825;DHT22;1420;51.324;12.344;2022-09-09T01:49:56;14.70;1.00
2825;DHT22;1420;51.324;12.344;2022-09-09T01:52:23;14.70;1.00
2825;DHT22;1420;51.324;12.344;2022-09-09T01:54:51;14.70;1.00
2825;DHT22;1420;51.324;12.344;2022-09-09T01:57:21;14.80;1.00
2825;DHT22;1420;51.324;12.344;2022-09-09T02:02:30;14.80;1.00
2825;DHT22;1420;51.324;12.344;2022-09-09T02:04:55;14.60;1.00
2825;DHT22;1420;51.324;12.344;2022-09-09T02:07:28;14.60;1.00
2825;DHT22;1420;51.324;12.344;2022-09-09T02:09:52;14.60;1.00
2825;DHT22;1420;51.324;12.344;2022-09-09T02:12:18;14.60;1.00
2825;DHT22;1420;51.324;12.344;2022-09-09T02:14:47;14.60;1.00
2825;DHT22;1420;51.324;12.344;2022-09-09T02:17:13;14.60;1.00
2825;DHT22;1420;51.324;12.344;2022-09-09T02:19:42;14.60;1.00
2825;DHT22;1420;51.324;12.344;2022-09-09T02:22:08;14.60;1.00
2825;DHT22;1420;51.324;12.344;2022-09-09T02:24:36;14.60;1.00
2825;DHT22;1420;51.324;12.344;2022-09-09T02:27:03;14.60;1.00
2825;DHT22;1420;51.324;12.344;2022-09-09T02:29:33;14.80;1.00
2825;DHT22;1420;51.324;12.344;2022-09-09T02:32:00;14.80;1.00
2825;DHT22;1420;51.324;12.344;2022-09-09T02:34:27;14.70;1.00
2825;DHT22;1420;51.324;12.344;2022-09-09T02:36:54;14.70;1.00
2825;DHT22;1420;51.324;12.344;2022-09-09T02:39:22;14.60;1.00
2825;DHT22;1420;51.324;12.344;2022-09-09T02:41:50;14.60;1.00
2825;DHT22;1420;51.324;12.344;2022-09-09T02:44:18;14.60;1.00
2825;DHT22;1420;51.324;12.344;2022-09-09T02:49:29;14.70;1.00
2825;DHT22;1420;51.324;12.344;2022-09-09T02:52:01;14.60;1.00
2825;DHT22;1420;51.324;12.344;2022-09-09T02:54:28;14.60;1.00
2825;DHT22;1420;51.324;12.344;2022-09-09T02:57:02;14.70;1.00
2825;DHT22;1420;51.324;12.344;2022-09-09T02:59:28;14.60;1.00
2825;DHT22;1420;51.324;12.344;2022-09-09T03:01:55;14.60;1.00
2825;DHT22;1420;51.324;12.344;2022-09-09T03:04:22;14.60;1.00
2825;DHT22;1420;51.324;12.344;2022-09-09T03:06:49;14.60;1.00
2825;DHT22;1420;51.324;12.344;2022-09-09T03:09:16;14.60;1.00
2825;DHT22;1420;51.324;12.344;2022-09-09T03:11:44;14.60;1.00
2825;DHT22;1420;51.324;12.344;2022-09-09T03:14:12;14.50;1.00
2825;DHT22;1420;51.324;12.344;2022-09-09T03:16:40;14.60;1.00
2825;DHT22;1420;51.324;12.344;2022-09-09T03:19:08;14.60;1.00
2825;DHT22;1420;51.324;12.344;2022-09-09T03:21:36;14.60;1.00
2825;DHT22;1420;51.324;12.344;2022-09-09T03:24:03;14.50;1.00
2825;DHT22;1420;51.324;12.344;2022-09-09T03:26:30;14.60;1.00
2825;DHT22;1420;51.324;12.344;2022-09-09T03:28:57;14.50;1.00
2825;DHT22;1420;51.324;12.344;2022-09-09T03:31:24;14.50;1.00
2825;DHT22;1420;51.324;12.344;2022-09-09T03:33:52;14.50;1.00
2825;DHT22;1420;51.324;12.344;2022-09-09T03:36:19;14.50;1.00
2825;DHT22;1420;51.324;12.344;2022-09-09T03:38:46;14.50;1.00
2825;DHT22;1420;51.324;12.344;2022-09-09T03:41:13;14.40;1.00
2825;DHT22;1420;51.324;12.344;2022-09-09T03:43:41;14.40;1.00
2825;DHT22;1420;51.324;12.344;2022-09-09T03:46:08;14.40;1.00
2825;DHT22;1420;51.324;12.344;2022-09-09T03:48:36;14.40;1.00
2825;DHT22;1420;51.324;12.344;2022-09-09T03:51:04;14.20;1.00
2825;DHT22;1420;51.324;12.344;2022-09-09T03:53:31;14.20;1.00
2825;DHT22;1420;51.324;12.344;2022-09-09T03:55:58;14.30;1.00
2825;DHT22;1420;51.324;12.344;2022-09-09T03:58:25;14.30;1.00
2825;DHT22;1420;51.324;12.344;2022-09-09T04:00:54;14.30;1.00
2825;DHT22;1420;51.324;12.344;2022-09-09T04:03:21;14.20;1.00
2825;DHT22;1420;51.324;12.344;2022-09-09T04:05:49;14.10;1.00
2825;DHT22;1420;51.324;12.344;2022-09-09T04:08:16;14.20;1.00
2825;DHT22;1420;51.324;12.344;2022-09-09T04:10:44;14.20;1.00
2825;DHT22;1420;51.324;12.344;2022-09-09T04:13:11;14.10;1.00
2825;DHT22;1420;51.324;12.344;2022-09-09T04:15:39;13.80;1.00
2825;DHT22;1420;51.324;12.344;2022-09-09T04:18:10;13.80;1.00
2825;DHT22;1420;51.324;12.344;2022-09-09T04:20:38;13.90;1.00
2825;DHT22;1420;51.324;12.344;2022-09-09T04:23:05;13.70;1.00
2825;DHT22;1420;51.324;12.344;2022-09-09T04:25:32;13.70;2.20
2825;DHT22;1420;51.324;12.344;2022-09-09T04:27:59;13.70;91.50
2825;DHT22;1420;51.324;12.344;2022-09-09T04:30:26;13.70;80.70
2825;DHT22;1420;51.324;12.344;2022-09-09T04:32:54;13.70;90.60
2825;DHT22;1420;51.324;12.344;2022-09-09T04:35:21;13.80;1.00
2825;DHT22;1420;51.324;12.344;2022-09-09T04:37:48;14.00;1.00
2825;DHT22;1420;51.324;12.344;2022-09-09T04:40:15;14.00;1.00
2825;DHT22;1420;51.324;12.344;2022-09-09T04:42:42;14.00;1.00
2825;DHT22;1420;51.324;12.344;2022-09-09T04:45:10;14.10;1.00
2825;DHT22;1420;51.324;12.344;2022-09-09T04:47:38;14.10;1.00
2825;DHT22;1420;51.324;12.344;2022-09-09T04:50:05;14.10;1.00
2825;DHT22;1420;51.324;12.344;2022-09-09T04:52:34;14.20;1.00
2825;DHT22;1420;51.324;12.344;2022-09-09T04:55:01;14.40;1.00
2825;DHT22;1420;51.324;12.344;2022-09-09T04:57:28;14.60;1.00
2825;DHT22;1420;51.324;12.344;2022-09-09T04:59:55;14.80;1.00
2825;DHT22;1420;51.324;12.344;2022-09-09T05:02:22;14.70;1.00
2825;DHT22;1420;51.324;12.344;2022-09-09T05:04:50;14.70;1.00
2825;DHT22;1420;51.324;12.344;2022-09-09T05:07:17;14.60;1.00
2825;DHT22;1420;51.324;12.344;2022-09-09T05:09:45;14.80;1.00
2825;DHT22;1420;51.324;12.344;2022-09-09T05:12:12;14.70;1.00
2825;DHT22;1420;51.324;12.344;2022-09-09T05:14:39;15.00;1.00
2825;DHT22;1420;51.324;12.344;2022-09-09T05:17:06;15.00;1.00
2825;DHT22;1420;51.324;12.344;2022-09-09T05:19:34;15.00;1.00
2825;DHT22;1420;51.324;12.344;2022-09-09T05:22:01;15.10;1.00
2825;DHT22;1420;51.324;12.344;2022-09-09T05:24:28;15.00;1.00
2825;DHT22;1420;51.324;12.344;2022-09-09T05:26:55;15.20;1.00
2825;DHT22;1420;51.324;12.344;2022-09-09T05:29:22;15.40;1.00
2825;DHT22;1420;51.324;12.344;2022-09-09T05:31:50;15.70;99.90
2825;DHT22;1420;51.324;12.344;2022-09-09T05:34:18;15.70;99.90
2825;DHT22;1420;51.324;12.344;2022-09-09T05:36:45;15.70;99.90
2825;DHT22;1420;51.324;12.344;2022-09-09T05:39:12;15.70;99.90
2825;DHT22;1420;51.324;12.344;2022-09-09T05:41:39;15.60;99.90
2825;DHT22;1420;51.324;12.344;2022-09-09T05:44:06;15.50;99.90
2825;DHT22;1420;51.324;12.344;2022-09-09T05:46:34;15.60;99.90
2825;DHT22;1420;51.324;12.344;2022-09-09T05:49:01;15.70;99.90
2825;DHT22;1420;51.324;12.344;2022-09-09T05:51:29;15.70;99.90
2825;DHT22;1420;51.324;12.344;2022-09-09T05:53:55;15.70;99.90
2825;DHT22;1420;51.324;12.344;2022-09-09T05:56:24;15.80;99.90
2825;DHT22;1420;51.324;12.344;2022-09-09T05:58:50;15.80;99.90
2825;DHT22;1420;51.324;12.344;2022-09-09T06:01:18;15.70;99.90
2825;DHT22;1420;51.324;12.344;2022-09-09T06:03:45;15.80;99.90
2825;DHT22;1420;51.324;12.344;2022-09-09T06:06:16;15.80;99.90
2825;DHT22;1420;51.324;12.344;2022-09-09T06:08:43;15.90;99.90
2825;DHT22;1420;51.324;12.344;2022-09-09T06:11:11;15.90;99.90
2825;DHT22;1420;51.324;12.344;2022-09-09T06:13:38;16.00;99.90
2825;DHT22;1420;51.324;12.344;2022-09-09T06:16:08;16.10;99.90
2825;DHT22;1420;51.324;12.344;2022-09-09T06:18:33;16.20;99.90
2825;DHT22;1420;51.324;12.344;2022-09-09T06:21:01;16.60;99.90
2825;DHT22;1420;51.324;12.344;2022-09-09T06:23:28;16.50;99.90
2825;DHT22;1420;51.324;12.344;2022-09-09T06:26:04;16.60;99.90
2825;DHT22;1420;51.324;12.344;2022-09-09T06:28:33;16.50;99.90
2825;DHT22;1420;51.324;12.344;2022-09-09T06:31:00;16.60;99.90
2825;DHT22;1420;51.324;12.344;2022-09-09T06:33:26;16.90;99.90
2825;DHT22;1420;51.324;12.344;2022-09-09T06:35:54;17.00;99.90
2825;DHT22;1420;51.324;12.344;2022-09-09T06:38:21;16.90;99.90
2825;DHT22;1420;51.324;12.344;2022-09-09T06:40:52;16.80;99.90
2825;DHT22;1420;51.324;12.344;2022-09-09T06:43:18;16.90;99.90
2825;DHT22;1420;51.324;12.344;2022-09-09T06:46:20;17.00;99.90
2825;DHT22;1420;51.324;12.344;2022-09-09T06:48:28;17.10;99.90
2825;DHT22;1420;51.324;12.344;2022-09-09T06:51:03;16.90;99.90
2825;DHT22;1420;51.324;12.344;2022-09-09T06:53:30;17.10;99.90
2825;DHT22;1420;51.324;12.344;2022-09-09T06:55:57;17.30;99.90
2825;DHT22;1420;51.324;12.344;2022-09-09T06:58:24;17.30;99.90
2825;DHT22;1420;51.324;12.344;2022-09-09T07:00:52;17.90;99.90
2825;DHT22;1420;51.324;12.344;2022-09-09T07:03:19;17.80;99.90
2825;DHT22;1420;51.324;12.344;2022-09-09T07:05:53;18.90;99.90
2825;DHT22;1420;51.324;12.344;2022-09-09T07:08:14;19.70;99.90
2825;DHT22;1420;51.324;12.344;2022-09-09T07:10:42;19.60;99.90
2825;DHT22;1420;51.324;12.344;2022-09-09T07:13:09;19.40;99.90
2825;DHT22;1420;51.324;12.344;2022-09-09T07:15:36;19.40;99.90
2825;DHT22;1420;51.324;12.344;2022-09-09T07:18:03;19.70;99.90
2825;DHT22;1420;51.324;12.344;2022-09-09T07:20:30;21.00;99.90
2825;DHT22;1420;51.324;12.344;2022-09-09T07:22:58;21.60;99.90
2825;DHT22;1420;51.324;12.344;2022-09-09T07:25:25;21.70;99.90
2825;DHT22;1420;51.324;12.344;2022-09-09T07:27:52;22.20;99.90
2825;DHT22;1420;51.324;12.344;2022-09-09T07:30:20;22.40;99.90
2825;DHT22;1420;51.324;12.344;2022-09-09T07:32:47;22.30;99.90
2825;DHT22;1420;51.324;12.344;2022-09-09T07:35:14;22.70;99.90
2825;DHT22;1420;51.324;12.344;2022-09-09T07:37:42;22.80;99.90
2825;DHT22;1420;51.324;12.344;2022-09-09T07:40:09;23.40;99.90
2825;DHT22;1420;51.324;12.344;2022-09-09T07:42:36;23.60;99.90
2825;DHT22;1420;51.324;12.344;2022-09-09T07:45:04;23.80;99.90
2825;DHT22;1420;51.324;12.344;2022-09-09T07:47:32;22.90;99.90
2825;DHT22;1420;51.324;12.344;2022-09-09T07:49:59;22.80;99.90
2825;DHT22;1420;51.324;12.344;2022-09-09T07:52:26;22.80;99.90
2825;DHT22;1420;51.324;12.344;2022-09-09T07:54:53;23.10;99.90
2825;DHT22;1420;51.324;12.344;2022-09-09T07:57:20;23.50;99.90
2825;DHT22;1420;51.324;12.344;2022-09-09T07:59:48;23.80;99.90
2825;DHT22;1420;51.324;12.344;2022-09-09T08:02:15;23.20;99.90
2825;DHT22;1420;51.324;12.344;2022-09-09T08:04:43;23.70;99.90
2825;DHT22;1420;51.324;12.344;2022-09-09T08:07:10;23.70;99.90
2825;DHT22;1420;51.324;12.344;2022-09-09T08:09:37;23.40;99.90
2825;DHT22;1420;51.324;12.344;2022-09-09T08:12:04;23.70;99.90
2825;DHT22;1420;51.324;12.344;2022-09-09T08:14:32;24.60;99.90
2825;DHT22;1420;51.324;12.344;2022-09-09T08:16:59;24.30;99.90
2825;DHT22;1420;51.324;12.344;2022-09-09T08:19:26;23.90;99.90
2825;DHT22;1420;51.324;12.344;2022-09-09T08:21:53;22.70;99.90
2825;DHT22;1420;51.324;12.344;2022-09-09T08:24:20;22.70;99.90
2825;DHT22;1420;51.324;12.344;2022-09-09T08:26:48;22.20;99.90
2825;DHT22;1420;51.324;12.344;2022-09-09T08:29:16;22.20;99.90
2825;DHT22;1420;51.324;12.344;2022-09-09T08:31:45;22.20;99.90
2825;DHT22;1420;51.324;12.344;2022-09-09T08:34:11;22.90;99.90
2825;DHT22;1420;51.324;12.344;2022-09-09T08:36:40;23.40;99.90
2825;DHT22;1420;51.324;12.344;2022-09-09T08:39:06;23.40;99.90
2825;DHT22;1420;51.324;12.344;2022-09-09T08:44:21;24.40;99.90
2825;DHT22;1420;51.324;12.344;2022-09-09T08:49:29;25.00;99.90
2825;DHT22;1420;51.324;12.344;2022-09-09T08:51:50;25.00;99.90
2825;DHT22;1420;51.324;12.344;2022-09-09T08:54:18;25.20;99.90
2825;DHT22;1420;51.324;12.344;2022-09-09T08:56:45;24.90;99.90
2825;DHT22;1420;51.324;12.344;2022-09-09T08:59:12;25.10;99.90
2825;DHT22;1420;51.324;12.344;2022-09-09T09:01:41;24.90;99.90
2825;DHT22;1420;51.324;12.344;2022-09-09T09:04:29;25.30;99.90
2825;DHT22;1420;51.324;12.344;2022-09-09T09:07:06;25.40;99.90
2825;DHT22;1420;51.324;12.344;2022-09-09T09:09:33;25.80;99.90
2825;DHT22;1420;51.324;12.344;2022-09-09T09:11:58;25.10;99.90
2825;DHT22;1420;51.324;12.344;2022-09-09T09:14:24;25.90;99.90
2825;DHT22;1420;51.324;12.344;2022-09-09T09:16:54;24.90;99.90
2825;DHT22;1420;51.324;12.344;2022-09-09T09:19:20;25.40;99.90
2825;DHT22;1420;51.324;12.344;2022-09-09T09:24:23;26.50;99.90
2825;DHT22;1420;51.324;12.344;2022-09-09T09:26:49;25.70;99.90
2825;DHT22;1420;51.324;12.344;2022-09-09T09:29:17;25.20;99.90
2825;DHT22;1420;51.324;12.344;2022-09-09T09:31:47;25.30;99.90
2825;DHT22;1420;51.324;12.344;2022-09-09T09:34:13;25.20;99.90
2825;DHT22;1420;51.324;12.344;2022-09-09T09:36:42;24.70;99.90
2825;DHT22;1420;51.324;12.344;2022-09-09T09:39:08;24.90;99.90
2825;DHT22;1420;51.324;12.344;2022-09-09T09:41:40;24.70;99.90
2825;DHT22;1420;51.324;12.344;2022-09-09T09:44:23;24.60;99.90
2825;DHT22;1420;51.324;12.344;2022-09-09T09:46:48;24.70;99.90
2825;DHT22;1420;51.324;12.344;2022-09-09T09:49:15;24.60;99.90
2825;DHT22;1420;51.324;12.344;2022-09-09T09:51:43;24.70;99.90
2825;DHT22;1420;51.324;12.344;2022-09-09T09:54:18;24.40;99.90
2825;DHT22;1420;51.324;12.344;2022-09-09T09:56:44;24.60;99.90
2825;DHT22;1420;51.324;12.344;2022-09-09T09:59:21;24.50;99.90
2825;DHT22;1420;51.324;12.344;2022-09-09T10:01:47;24.40;99.90
2825;DHT22;1420;51.324;12.344;2022-09-09T10:04:16;24.30;99.90
2825;DHT22;1420;51.324;12.344;2022-09-09T10:06:42;24.20;99.90
2825;DHT22;1420;51.324;12.344;2022-09-09T10:09:20;23.80;99.90
2825;DHT22;1420;51.324;12.344;2022-09-09T10:11:52;23.60;99.90
2825;DHT22;1420;51.324;12.344;2022-09-09T10:14:20;23.50;99.90
2825;DHT22;1420;51.324;12.344;2022-09-09T10:16:56;23.50;99.90
2825;DHT22;1420;51.324;12.344;2022-09-09T10:19:37;23.70;99.90
2825;DHT22;1420;51.324;12.344;2022-09-09T10:22:15;23.70;99.90
2825;DHT22;1420;51.324;12.344;2022-09-09T10:24:48;23.70;99.90
2825;DHT22;1420;51.324;12.344;2022-09-09T10:27:23;24.30;99.90
2825;DHT22;1420;51.324;12.344;2022-09-09T10:32:36;25.20;99.90
2825;DHT22;1420;51.324;12.344;2022-09-09T10:35:09;25.20;99.90
2825;DHT22;1420;51.324;12.344;2022-09-09T10:37:53;25.50;99.90
2825;DHT22;1420;51.324;12.344;2022-09-09T10:43:16;24.80;99.90
2825;DHT22;1420;51.324;12.344;2022-09-09T10:45:45;23.90;99.90
2825;DHT22;1420;51.324;12.344;2022-09-09T10:48:16;23.30;99.90
2825;DHT22;1420;51.324;12.344;2022-09-09T10:50:43;23.30;99.90
2825;DHT22;1420;51.324;12.344;2022-09-09T10:53:14;23.30;99.90
2825;DHT22;1420;51.324;12.344;2022-09-09T10:55:39;23.60;99.90
2825;DHT22;1420;51.324;12.344;2022-09-09T10:58:09;23.60;99.90
2825;DHT22;1420;51.324;12.344;2022-09-09T11:00:40;23.70;99.90
2825;DHT22;1420;51.324;12.344;2022-09-09T11:03:06;23.80;99.90
2825;DHT22;1420;51.324;12.344;2022-09-09T11:05:41;24.00;99.90
2825;DHT22;1420;51.324;12.344;2022-09-09T11:08:14;24.10;99.90
2825;DHT22;1420;51.324;12.344;2022-09-09T11:10:49;24.20;99.90
2825;DHT22;1420;51.324;12.344;2022-09-09T11:13:21;24.20;99.90
2825;DHT22;1420;51.324;12.344;2022-09-09T11:15:49;23.70;99.90
2825;DHT22;1420;51.324;12.344;2022-09-09T11:18:15;23.70;99.90
2825;DHT22;1420;51.324;12.344;2022-09-09T11:20:41;23.30;99.90
2825;DHT22;1420;51.324;12.344;2022-09-09T11:23:12;23.30;99.90
2825;DHT22;1420;51.324;12.344;2022-09-09T11:25:40;23.60;99.90
2825;DHT22;1420;51.324;12.344;2022-09-09T11:28:31;24.80;99.90
2825;DHT22;1420;51.324;12.344;2022-09-09T11:31:21;24.80;99.90
2825;DHT22;1420;51.324;12.344;2022-09-09T11:34:02;24.90;99.90
2825;DHT22;1420;51.324;12.344;2022-09-09T11:36:35;25.20;99.90
2825;DHT22;1420;51.324;12.344;2022-09-09T11:41:42;25.60;99.90
2825;DHT22;1420;51.324;12.344;2022-09-09T11:44:12;25.30;99.90
2825;DHT22;1420;51.324;12.344;2022-09-09T11:46:38;25.20;99.90
2825;DHT22;1420;51.324;12.344;2022-09-09T11:49:06;25.10;99.90
2825;DHT22;1420;51.324;12.344;2022-09-09T11:51:33;25.20;99.90
2825;DHT22;1420;51.324;12.344;2022-09-09T11:54:01;24.80;99.90
2825;DHT22;1420;51.324;12.344;2022-09-09T11:56:42;24.80;99.90
2825;DHT22;1420;51.324;12.344;2022-09-09T11:59:06;25.00;99.90
2825;DHT22;1420;51.324;12.344;2022-09-09T12:01:36;25.20;99.90
2825;DHT22;1420;51.324;12.344;2022-09-09T12:04:13;25.00;99.90
2825;DHT22;1420;51.324;12.344;2022-09-09T12:06:43;25.00;99.90
2825;DHT22;1420;51.324;12.344;2022-09-09T12:09:16;24.60;99.90
2825;DHT22;1420;51.324;12.344;2022-09-09T12:11:37;24.90;99.90
2825;DHT22;1420;51.324;12.344;2022-09-09T12:14:18;25.00;99.90
2825;DHT22;1420;51.324;12.344;2022-09-09T12:16:34;25.20;99.90
2825;DHT22;1420;51.324;12.344;2022-09-09T12:19:12;25.30;99.90
2825;DHT22;1420;51.324;12.344;2022-09-09T12:21:36;25.30;99.90
2825;DHT22;1420;51.324;12.344;2022-09-09T12:24:03;25.40;99.90
2825;DHT22;1420;51.324;12.344;2022-09-09T12:26:34;25.10;99.90
2825;DHT22;1420;51.324;12.344;2022-09-09T12:31:43;25.10;99.90
2825;DHT22;1420;51.324;12.344;2022-09-09T12:34:10;25.10;99.90
2825;DHT22;1420;51.324;12.344;2022-09-09T12:36:37;24.90;99.90
2825;DHT22;1420;51.324;12.344;2022-09-09T12:42:02;24.90;99.90
2825;DHT22;1420;51.324;12.344;2022-09-09T12:44:30;25.00;99.90
2825;DHT22;1420;51.324;12.344;2022-09-09T12:46:58;25.10;99.90
2825;DHT22;1420;51.324;12.344;2022-09-09T12:49:29;24.90;99.90
2825;DHT22;1420;51.324;12.344;2022-09-09T12:51:55;24.90;99.90
2825;DHT22;1420;51.324;12.344;2022-09-09T12:54:22;25.00;99.90
2825;DHT22;1420;51.324;12.344;2022-09-09T12:56:50;24.80;99.90
2825;DHT22;1420;51.324;12.344;2022-09-09T12:59:24;24.90;99.90
2825;DHT22;1420;51.324;12.344;2022-09-09T13:01:56;24.90;99.90
2825;DHT22;1420;51.324;12.344;2022-09-09T13:04:24;25.00;99.90
2825;DHT22;1420;51.324;12.344;2022-09-09T13:06:51;25.00;99.90
2825;DHT22;1420;51.324;12.344;2022-09-09T13:09:18;25.00;99.90
2825;DHT22;1420;51.324;12.344;2022-09-09T13:11:49;24.80;99.90
2825;DHT22;1420;51.324;12.344;2022-09-09T13:14:17;24.70;99.90
2825;DHT22;1420;51.324;12.344;2022-09-09T13:16:43;24.70;99.90
2825;DHT22;1420;51.324;12.344;2022-09-09T13:19:14;24.60;99.90
2825;DHT22;1420;51.324;12.344;2022-09-09T13:21:41;24.30;99.90
2825;DHT22;1420;51.324;12.344;2022-09-09T13:26:53;24.00;99.90
2825;DHT22;1420;51.324;12.344;2022-09-09T13:29:16;23.70;99.90
2825;DHT22;1420;51.324;12.344;2022-09-09T13:31:43;23.50;99.90
2825;DHT22;1420;51.324;12.344;2022-09-09T13:34:12;23.60;99.90
2825;DHT22;1420;51.324;12.344;2022-09-09T13:36:39;23.30;99.90
2825;DHT22;1420;51.324;12.344;2022-09-09T13:39:12;23.20;99.90
2825;DHT22;1420;51.324;12.344;2022-09-09T13:41:41;23.20;99.90
2825;DHT22;1420;51.324;12.344;2022-09-09T13:44:03;23.40;99.90
2825;DHT22;1420;51.324;12.344;2022-09-09T13:46:40;23.40;99.90
2825;DHT22;1420;51.324;12.344;2022-09-09T13:49:23;23.30;99.90
2825;DHT22;1420;51.324;12.344;2022-09-09T13:51:50;23.30;99.90
2825;DHT22;1420;51.324;12.344;2022-09-09T13:54:18;23.10;99.90
2825;DHT22;1420;51.324;12.344;2022-09-09T13:56:45;23.10;99.90
2825;DHT22;1420;51.324;12.344;2022-09-09T13:59:13;22.40;99.90
2825;DHT22;1420;51.324;12.344;2022-09-09T14:01:40;20.40;99.90
2825;DHT22;1420;51.324;12.344;2022-09-09T14:04:07;20.40;99.90
2825;DHT22;1420;51.324;12.344;2022-09-09T14:06:35;19.80;99.90
2825;DHT22;1420;51.324;12.344;2022-09-09T14:09:03;19.30;99.90
2825;DHT22;1420;51.324;12.344;2022-09-09T14:11:30;19.10;99.90
2825;DHT22;1420;51.324;12.344;2022-09-09T14:13:57;19.10;99.90
2825;DHT22;1420;51.324;12.344;2022-09-09T14:16:24;19.10;99.90
2825;DHT22;1420;51.324;12.344;2022-09-09T14:18:51;19.20;99.90
2825;DHT22;1420;51.324;12.344;2022-09-09T14:21:19;19.50;99.90
2825;DHT22;1420;51.324;12.344;2022-09-09T14:23:47;19.60;99.90
2825;DHT22;1420;51.324;12.344;2022-09-09T14:26:15;19.60;99.90
2825;DHT22;1420;51.324;12.344;2022-09-09T14:28:42;19.70;99.90
2825;DHT22;1420;51.324;12.344;2022-09-09T14:31:09;19.90;99.90
2825;DHT22;1420;51.324;12.344;2022-09-09T14:33:37;19.90;99.90
2825;DHT22;1420;51.324;12.344;2022-09-09T14:36:05;19.90;99.90
2825;DHT22;1420;51.324;12.344;2022-09-09T14:38:33;19.90;99.90
2825;DHT22;1420;51.324;12.344;2022-09-09T14:41:00;20.10;99.90
2825;DHT22;1420;51.324;12.344;2022-09-09T14:43:27;20.10;99.90
2825;DHT22;1420;51.324;12.344;2022-09-09T14:45:55;20.30;99.90
2825;DHT22;1420;51.324;12.344;2022-09-09T14:48:23;20.20;99.90
2825;DHT22;1420;51.324;12.344;2022-09-09T14:50:50;20.20;99.90
2825;DHT22;1420;51.324;12.344;2022-09-09T14:53:17;20.10;99.90
2825;DHT22;1420;51.324;12.344;2022-09-09T14:55:44;20.10;99.90
2825;DHT22;1420;51.324;12.344;2022-09-09T14:58:11;20.20;99.90
2825;DHT22;1420;51.324;12.344;2022-09-09T15:00:39;20.50;99.90
2825;DHT22;1420;51.324;12.344;2022-09-09T15:03:06;20.70;99.90
2825;DHT22;1420;51.324;12.344;2022-09-09T15:05:34;21.00;99.90
2825;DHT22;1420;51.324;12.344;2022-09-09T15:08:02;21.30;99.90
2825;DHT22;1420;51.324;12.344;2022-09-09T15:10:29;21.30;99.90
2825;DHT22;1420;51.324;12.344;2022-09-09T15:12:56;21.30;99.90
2825;DHT22;1420;51.324;12.344;2022-09-09T15:15:23;21.30;99.90
2825;DHT22;1420;51.324;12.344;2022-09-09T15:17:51;21.40;99.90
2825;DHT22;1420;51.324;12.344;2022-09-09T15:20:18;21.30;99.90
2825;DHT22;1420;51.324;12.344;2022-09-09T15:22:45;21.30;99.90
2825;DHT22;1420;51.324;12.344;2022-09-09T15:25:12;21.20;99.90
2825;DHT22;1420;51.324;12.344;2022-09-09T15:27:39;21.20;99.90
2825;DHT22;1420;51.324;12.344;2022-09-09T15:30:08;21.30;99.90
2825;DHT22;1420;51.324;12.344;2022-09-09T15:32:35;21.30;99.90
2825;DHT22;1420;51.324;12.344;2022-09-09T15:35:02;21.30;99.90
2825;DHT22;1420;51.324;12.344;2022-09-09T15:37:30;21.70;99.90
2825;DHT22;1420;51.324;12.344;2022-09-09T15:39:58;21.80;99.90
2825;DHT22;1420;51.324;12.344;2022-09-09T15:42:25;21.80;99.90
2825;DHT22;1420;51.324;12.344;2022-09-09T15:44:52;21.90;99.90
2825;DHT22;1420;51.324;12.344;2022-09-09T15:47:20;22.00;99.90
2825;DHT22;1420;51.324;12.344;2022-09-09T15:49:47;22.00;99.90
2825;DHT22;1420;51.324;12.344;2022-09-09T15:52:14;22.00;99.90
2825;DHT22;1420;51.324;12.344;2022-09-09T15:54:41;21.90;99.90
2825;DHT22;1420;51.324;12.344;2022-09-09T15:57:10;22.00;99.90
2825;DHT22;1420;51.324;12.344;2022-09-09T15:59:36;21.60;99.90
2825;DHT22;1420;51.324;12.344;2022-09-09T16:02:03;21.70;99.90
2825;DHT22;1420;51.324;12.344;2022-09-09T16:04:30;21.40;99.90
2825;DHT22;1420;51.324;12.344;2022-09-09T16:06:59;21.40;99.90
2825;DHT22;1420;51.324;12.344;2022-09-09T16:09:26;21.30;99.90
2825;DHT22;1420;51.324;12.344;2022-09-09T16:11:55;21.30;99.90
2825;DHT22;1420;51.324;12.344;2022-09-09T16:14:20;21.30;99.90
2825;DHT22;1420;51.324;12.344;2022-09-09T16:16:48;21.30;99.90
2825;DHT22;1420;51.324;12.344;2022-09-09T16:19:15;21.20;99.90
2825;DHT22;1420;51.324;12.344;2022-09-09T16:21:43;21.30;99.90
2825;DHT22;1420;51.324;12.344;2022-09-09T16:24:11;21.40;99.90
2825;DHT22;1420;51.324;12.344;2022-09-09T16:26:39;21.40;99.90
2825;DHT22;1420;51.324;12.344;2022-09-09T16:29:06;21.20;99.90
2825;DHT22;1420;51.324;12.344;2022-09-09T16:31:34;21.10;99.90
2825;DHT22;1420;51.324;12.344;2022-09-09T16:34:02;21.10;99.90
2825;DHT22;1420;51.324;12.344;2022-09-09T16:36:30;21.10;99.90
2825;DHT22;1420;51.324;12.344;2022-09-09T16:38:58;21.30;99.90
2825;DHT22;1420;51.324;12.344;2022-09-09T16:41:25;21.10;99.90